Robert G. Brownlee — WCY4665 — position and weather

sailwx.info

Track history (hours):
 
Tides and Currents Weather Stations Pressure Air Temp Water Temp Dewpoint Dewpoint Depression Visibility Wind Speed Wind Dir Waves Ship Positions

Robert G. Brownlee

Owner: MARINE SCIENCE INSTITUTE, REDWOOD CITY, CA. More information available from US FCC via Universal Licensing System and Coast Guard Vessel Documentation Center.

Last reported at 2018-Aug-10 16:54 UTC. Time now 2018-Aug-14 07:05 UTC.
Position N 37°31' W 122°08'.

MMSI: 366751060.

Date/timePositionNaut miles runAvg speedWind from/ knotsBaromVisibWave heightAir tempDewpointWater temp
2018-Aug-10 16:54N 37°31' W 122°08'3 7.5
2018-Aug-10 16:30N 37°32' W 122°12'0 0.0
2018-Aug-09 16:37N 37°32' W 122°12'2 0.1
2018-Aug-08 20:54N 37°31' W 122°13'4 0.9
2018-Aug-08 17:00N 37°34' W 122°10'3 5.0
2018-Aug-08 16:24N 37°31' W 122°12'  
2018-Aug-03 21:18N 37°30' W 122°13'3 7.2
2018-Aug-03 20:53N 37°33' W 122°12'1 2.2
2018-Aug-03 20:25N 37°34' W 122°12'3 7.9
2018-Aug-03 19:59N 37°36' W 122°15'2 4.3
2018-Aug-03 19:26N 37°38' W 122°17'4 9.1
2018-Aug-03 19:00N 37°41' W 122°20'5 9.0
2018-Aug-03 18:30N 37°45' W 122°22'2 3.4
2018-Aug-03 18:00N 37°47' W 122°23'3 5.4
2018-Aug-03 17:30N 37°49' W 122°25'2 4.5
2018-Aug-03 17:00N 37°49' W 122°28'2 4.3
2018-Aug-03 16:30N 37°51' W 122°28'4 8.9
2018-Aug-03 16:00N 37°54' W 122°24'2 4.6
2018-Aug-03 15:31N 37°55' W 122°21'0 0.0
2018-Aug-03 15:00N 37°55' W 122°21'0 0.0
2018-Aug-03 14:30N 37°55' W 122°21'0 0.0
2018-Aug-03 14:00N 37°55' W 122°21'0 0.0
2018-Aug-03 13:30N 37°55' W 122°21'0 0.0
2018-Aug-03 04:43N 37°55' W 122°21'0 0.0
2018-Aug-03 04:30N 37°55' W 122°21'0 0.0
2018-Aug-03 04:00N 37°55' W 122°21'0 0.0
2018-Aug-03 03:30N 37°55' W 122°21'0 0.0
2018-Aug-03 03:00N 37°55' W 122°21'0 0.8
2018-Aug-03 02:30N 37°55' W 122°22'4 8.0
2018-Aug-03 02:00N 37°52' W 122°26'0 0.7
2018-Aug-03 01:30N 37°52' W 122°26'0 0.0
2018-Aug-03 01:00N 37°52' W 122°26'0 0.0
2018-Aug-03 00:30N 37°52' W 122°26'0 0.0
2018-Aug-03 00:00N 37°52' W 122°26'0 0.0
2018-Aug-02 23:30N 37°52' W 122°26'1 2.7
2018-Aug-02 23:00N 37°53' W 122°26'4 7.5
2018-Aug-02 22:30N 37°55' W 122°21'0 0.6
2018-Aug-02 22:00N 37°55' W 122°21'4 8.5
2018-Aug-02 21:30N 37°52' W 122°26'0 0.5
2018-Aug-02 21:00N 37°52' W 122°26'0 0.7
2018-Aug-02 20:30N 37°52' W 122°26'0 0.5
2018-Aug-02 20:00N 37°52' W 122°26'3 6.1
2018-Aug-02 19:30N 37°50' W 122°28'1 1.7
2018-Aug-02 19:00N 37°49' W 122°27'4 7.8
2018-Aug-02 18:30N 37°47' W 122°23'5 9.0
2018-Aug-02 18:00N 37°43' W 122°21'5 9.4
2018-Aug-02 17:30N 37°39' W 122°18'5 9.1
2018-Aug-02 17:00N 37°35' W 122°15'5 7.9
2018-Aug-02 16:25N 37°31' W 122°13'1 0.0
2018-Aug-01 21:15N 37°30' W 122°13'4 1.1
2018-Aug-01 17:57N 37°33' W 122°12'1 0.7
2018-Aug-01 17:14N 37°34' W 122°12'0 0.7
2018-Aug-01 16:54N 37°34' W 122°12'3 6.2
2018-Aug-01 16:27N 37°31' W 122°12'1 0.0
2018-Jul-31 21:18N 37°31' W 122°13'2 4.6
2018-Jul-31 20:50N 37°32' W 122°11'1 1.1
2018-Jul-31 19:48N 37°33' W 122°10'0 0.1
2018-Jul-31 16:54N 37°33' W 122°10'  
Track history (hours):
 
Tides and Currents Weather Stations Pressure Air Temp Water Temp Dewpoint Dewpoint Depression Visibility Wind Speed Wind Dir Waves Ship Positions

Robert G. Brownlee

Owner: MARINE SCIENCE INSTITUTE, REDWOOD CITY, CA. More information available from US FCC via Universal Licensing System and Coast Guard Vessel Documentation Center.

Last reported at 2018-Aug-10 16:54 UTC. Time now 2018-Aug-14 07:05 UTC.
Position N 37°31' W 122°08'.

MMSI: 366751060.

Date/timePositionNaut miles runAvg speedWind from/ knotsBaromVisibWave heightAir tempDewpointWater temp
2018-Aug-10 16:54N 37°31' W 122°08'3 7.5
2018-Aug-10 16:30N 37°32' W 122°12'0 0.0
2018-Aug-09 16:37N 37°32' W 122°12'2 0.1
2018-Aug-08 20:54N 37°31' W 122°13'4 0.9
2018-Aug-08 17:00N 37°34' W 122°10'3 5.0
2018-Aug-08 16:24N 37°31' W 122°12'  
2018-Aug-03 21:18N 37°30' W 122°13'3 7.2
2018-Aug-03 20:53N 37°33' W 122°12'1 2.2
2018-Aug-03 20:25N 37°34' W 122°12'3 7.9
2018-Aug-03 19:59N 37°36' W 122°15'2 4.3
2018-Aug-03 19:26N 37°38' W 122°17'4 9.1
2018-Aug-03 19:00N 37°41' W 122°20'5 9.0
2018-Aug-03 18:30N 37°45' W 122°22'2 3.4
2018-Aug-03 18:00N 37°47' W 122°23'3 5.4
2018-Aug-03 17:30N 37°49' W 122°25'2 4.5
2018-Aug-03 17:00N 37°49' W 122°28'2 4.3
2018-Aug-03 16:30N 37°51' W 122°28'4 8.9
2018-Aug-03 16:00N 37°54' W 122°24'2 4.6
2018-Aug-03 15:31N 37°55' W 122°21'0 0.0
2018-Aug-03 15:00N 37°55' W 122°21'0 0.0
2018-Aug-03 14:30N 37°55' W 122°21'0 0.0
2018-Aug-03 14:00N 37°55' W 122°21'0 0.0
2018-Aug-03 13:30N 37°55' W 122°21'0 0.0
2018-Aug-03 04:43N 37°55' W 122°21'0 0.0
2018-Aug-03 04:30N 37°55' W 122°21'0 0.0
2018-Aug-03 04:00N 37°55' W 122°21'0 0.0
2018-Aug-03 03:30N 37°55' W 122°21'0 0.0
2018-Aug-03 03:00N 37°55' W 122°21'0 0.8
2018-Aug-03 02:30N 37°55' W 122°22'4 8.0
2018-Aug-03 02:00N 37°52' W 122°26'0 0.7
2018-Aug-03 01:30N 37°52' W 122°26'0 0.0
2018-Aug-03 01:00N 37°52' W 122°26'0 0.0
2018-Aug-03 00:30N 37°52' W 122°26'0 0.0
2018-Aug-03 00:00N 37°52' W 122°26'0 0.0
2018-Aug-02 23:30N 37°52' W 122°26'1 2.7
2018-Aug-02 23:00N 37°53' W 122°26'4 7.5
2018-Aug-02 22:30N 37°55' W 122°21'0 0.6
2018-Aug-02 22:00N 37°55' W 122°21'4 8.5
2018-Aug-02 21:30N 37°52' W 122°26'0 0.5
2018-Aug-02 21:00N 37°52' W 122°26'0 0.7
2018-Aug-02 20:30N 37°52' W 122°26'0 0.5
2018-Aug-02 20:00N 37°52' W 122°26'3 6.1
2018-Aug-02 19:30N 37°50' W 122°28'1 1.7
2018-Aug-02 19:00N 37°49' W 122°27'4 7.8
2018-Aug-02 18:30N 37°47' W 122°23'5 9.0
2018-Aug-02 18:00N 37°43' W 122°21'5 9.4
2018-Aug-02 17:30N 37°39' W 122°18'5 9.1
2018-Aug-02 17:00N 37°35' W 122°15'5 7.9
2018-Aug-02 16:25N 37°31' W 122°13'1 0.0
2018-Aug-01 21:15N 37°30' W 122°13'4 1.1
2018-Aug-01 17:57N 37°33' W 122°12'1 0.7
2018-Aug-01 17:14N 37°34' W 122°12'0 0.7
2018-Aug-01 16:54N 37°34' W 122°12'3 6.2
2018-Aug-01 16:27N 37°31' W 122°12'1 0.0
2018-Jul-31 21:18N 37°31' W 122°13'2 4.6
2018-Jul-31 20:50N 37°32' W 122°11'1 1.1
2018-Jul-31 19:48N 37°33' W 122°10'0 0.1
2018-Jul-31 16:54N 37°33' W 122°10'  

Dump ship's entire track history